sensor_id;sensor_type;location;lat;lon;timestamp;P1;durP1;ratioP1;P2;durP2;ratioP2
45338;SDS011;31071;51.478;5.710;2023-05-17T00:00:51;19.25;;;5.55;;
45338;SDS011;31071;51.478;5.710;2023-05-17T00:03:17;22.60;;;6.15;;
45338;SDS011;31071;51.478;5.710;2023-05-17T00:05:42;17.58;;;6.22;;
45338;SDS011;31071;51.478;5.710;2023-05-17T00:08:08;15.50;;;5.78;;
45338;SDS011;31071;51.478;5.710;2023-05-17T00:10:34;15.35;;;6.38;;
45338;SDS011;31071;51.478;5.710;2023-05-17T00:12:59;17.75;;;5.35;;
45338;SDS011;31071;51.478;5.710;2023-05-17T00:15:25;14.38;;;5.47;;
45338;SDS011;31071;51.478;5.710;2023-05-17T00:17:50;17.75;;;5.22;;
45338;SDS011;31071;51.478;5.710;2023-05-17T00:20:16;13.85;;;5.72;;
45338;SDS011;31071;51.478;5.710;2023-05-17T00:22:41;15.95;;;5.15;;
45338;SDS011;31071;51.478;5.710;2023-05-17T00:25:09;23.77;;;5.65;;
45338;SDS011;31071;51.478;5.710;2023-05-17T00:27:35;19.85;;;5.97;;
45338;SDS011;31071;51.478;5.710;2023-05-17T00:30:00;17.02;;;5.78;;
45338;SDS011;31071;51.478;5.710;2023-05-17T00:32:26;14.88;;;5.85;;
45338;SDS011;31071;51.478;5.710;2023-05-17T00:34:52;19.75;;;6.30;;
45338;SDS011;31071;51.478;5.710;2023-05-17T00:37:17;16.73;;;6.05;;
45338;SDS011;31071;51.478;5.710;2023-05-17T00:39:43;16.80;;;6.13;;
45338;SDS011;31071;51.478;5.710;2023-05-17T00:42:08;15.90;;;6.22;;
45338;SDS011;31071;51.478;5.710;2023-05-17T00:44:35;20.73;;;6.00;;
45338;SDS011;31071;51.478;5.710;2023-05-17T00:47:01;19.25;;;5.97;;
45338;SDS011;31071;51.478;5.710;2023-05-17T00:49:27;16.00;;;6.55;;
45338;SDS011;31071;51.478;5.710;2023-05-17T00:51:53;12.88;;;5.28;;
45338;SDS011;31071;51.478;5.710;2023-05-17T00:54:19;23.50;;;5.93;;
45338;SDS011;31071;51.478;5.710;2023-05-17T00:56:45;21.08;;;6.68;;
45338;SDS011;31071;51.478;5.710;2023-05-17T00:59:13;20.38;;;6.75;;
45338;SDS011;31071;51.478;5.710;2023-05-17T01:01:42;20.70;;;6.43;;
45338;SDS011;31071;51.478;5.710;2023-05-17T01:04:08;15.02;;;7.25;;
45338;SDS011;31071;51.478;5.710;2023-05-17T01:06:34;14.80;;;6.00;;
45338;SDS011;31071;51.478;5.710;2023-05-17T01:09:01;18.50;;;6.60;;
45338;SDS011;31071;51.478;5.710;2023-05-17T01:17:01;19.00;;;7.13;;
45338;SDS011;31071;51.478;5.710;2023-05-17T01:19:39;20.13;;;6.15;;
45338;SDS011;31071;51.478;5.710;2023-05-17T01:27:59;19.50;;;7.18;;
45338;SDS011;31071;51.478;5.710;2023-05-17T01:30:28;18.23;;;6.13;;
45338;SDS011;31071;51.478;5.710;2023-05-17T01:32:55;20.08;;;6.07;;
45338;SDS011;31071;51.478;5.710;2023-05-17T01:35:24;19.10;;;6.00;;
45338;SDS011;31071;51.478;5.710;2023-05-17T01:37:53;18.27;;;6.35;;
45338;SDS011;31071;51.478;5.710;2023-05-17T01:40:19;19.45;;;6.60;;
45338;SDS011;31071;51.478;5.710;2023-05-17T01:42:47;17.15;;;6.20;;
45338;SDS011;31071;51.478;5.710;2023-05-17T01:50:55;16.98;;;5.97;;
45338;SDS011;31071;51.478;5.710;2023-05-17T01:56:00;18.88;;;6.55;;
45338;SDS011;31071;51.478;5.710;2023-05-17T01:58:31;23.85;;;6.85;;
45338;SDS011;31071;51.478;5.710;2023-05-17T02:01:04;17.65;;;7.25;;
45338;SDS011;31071;51.478;5.710;2023-05-17T02:03:30;24.17;;;6.95;;
45338;SDS011;31071;51.478;5.710;2023-05-17T02:05:56;19.55;;;7.82;;
45338;SDS011;31071;51.478;5.710;2023-05-17T02:08:22;23.52;;;6.57;;
45338;SDS011;31071;51.478;5.710;2023-05-17T02:10:48;21.30;;;7.70;;
45338;SDS011;31071;51.478;5.710;2023-05-17T02:13:14;21.02;;;7.57;;
45338;SDS011;31071;51.478;5.710;2023-05-17T02:15:39;17.73;;;7.13;;
45338;SDS011;31071;51.478;5.710;2023-05-17T02:18:05;24.48;;;7.60;;
45338;SDS011;31071;51.478;5.710;2023-05-17T02:20:30;26.05;;;8.38;;
45338;SDS011;31071;51.478;5.710;2023-05-17T02:22:56;19.33;;;7.90;;
45338;SDS011;31071;51.478;5.710;2023-05-17T02:25:23;19.17;;;7.65;;
45338;SDS011;31071;51.478;5.710;2023-05-17T02:27:51;26.45;;;8.60;;
45338;SDS011;31071;51.478;5.710;2023-05-17T02:30:17;26.10;;;8.82;;
45338;SDS011;31071;51.478;5.710;2023-05-17T02:32:42;20.95;;;8.88;;
45338;SDS011;31071;51.478;5.710;2023-05-17T02:35:09;26.00;;;8.82;;
45338;SDS011;31071;51.478;5.710;2023-05-17T02:37:35;24.88;;;8.55;;
45338;SDS011;31071;51.478;5.710;2023-05-17T02:40:00;27.25;;;8.85;;
45338;SDS011;31071;51.478;5.710;2023-05-17T02:42:26;25.40;;;7.95;;
45338;SDS011;31071;51.478;5.710;2023-05-17T02:44:51;18.88;;;7.93;;
45338;SDS011;31071;51.478;5.710;2023-05-17T02:47:20;27.65;;;8.70;;
45338;SDS011;31071;51.478;5.710;2023-05-17T02:49:45;24.40;;;8.75;;
45338;SDS011;31071;51.478;5.710;2023-05-17T02:52:12;22.88;;;8.38;;
45338;SDS011;31071;51.478;5.710;2023-05-17T02:54:42;27.55;;;9.38;;
45338;SDS011;31071;51.478;5.710;2023-05-17T02:57:08;18.38;;;8.48;;
45338;SDS011;31071;51.478;5.710;2023-05-17T02:59:34;20.90;;;9.18;;
45338;SDS011;31071;51.478;5.710;2023-05-17T03:02:01;24.35;;;8.75;;
45338;SDS011;31071;51.478;5.710;2023-05-17T03:04:28;18.13;;;8.93;;
45338;SDS011;31071;51.478;5.710;2023-05-17T03:06:57;20.27;;;9.02;;
45338;SDS011;31071;51.478;5.710;2023-05-17T03:09:23;24.90;;;8.85;;
45338;SDS011;31071;51.478;5.710;2023-05-17T03:11:48;29.38;;;9.25;;
45338;SDS011;31071;51.478;5.710;2023-05-17T03:14:15;25.95;;;8.98;;
45338;SDS011;31071;51.478;5.710;2023-05-17T03:16:40;24.80;;;9.95;;
45338;SDS011;31071;51.478;5.710;2023-05-17T03:19:07;24.50;;;9.35;;
45338;SDS011;31071;51.478;5.710;2023-05-17T03:21:33;27.08;;;9.60;;
45338;SDS011;31071;51.478;5.710;2023-05-17T03:23:58;23.25;;;9.35;;
45338;SDS011;31071;51.478;5.710;2023-05-17T03:26:24;24.88;;;9.38;;
45338;SDS011;31071;51.478;5.710;2023-05-17T03:28:51;25.00;;;9.40;;
45338;SDS011;31071;51.478;5.710;2023-05-17T03:31:16;24.83;;;9.82;;
45338;SDS011;31071;51.478;5.710;2023-05-17T03:33:42;21.40;;;8.77;;
45338;SDS011;31071;51.478;5.710;2023-05-17T03:36:08;23.25;;;9.35;;
45338;SDS011;31071;51.478;5.710;2023-05-17T03:38:34;31.48;;;9.80;;
45338;SDS011;31071;51.478;5.710;2023-05-17T03:41:00;28.33;;;10.00;;
45338;SDS011;31071;51.478;5.710;2023-05-17T03:43:25;22.67;;;10.57;;
45338;SDS011;31071;51.478;5.710;2023-05-17T03:45:52;22.95;;;9.23;;
45338;SDS011;31071;51.478;5.710;2023-05-17T03:48:18;25.98;;;9.70;;
45338;SDS011;31071;51.478;5.710;2023-05-17T03:50:43;21.70;;;9.00;;
45338;SDS011;31071;51.478;5.710;2023-05-17T03:53:09;27.83;;;9.80;;
45338;SDS011;31071;51.478;5.710;2023-05-17T03:55:35;21.83;;;9.60;;
45338;SDS011;31071;51.478;5.710;2023-05-17T03:58:02;24.88;;;10.25;;
45338;SDS011;31071;51.478;5.710;2023-05-17T04:00:29;30.90;;;9.98;;
45338;SDS011;31071;51.478;5.710;2023-05-17T04:02:55;25.42;;;10.07;;
45338;SDS011;31071;51.478;5.710;2023-05-17T04:05:20;26.70;;;9.38;;
45338;SDS011;31071;51.478;5.710;2023-05-17T04:07:46;27.65;;;10.65;;
45338;SDS011;31071;51.478;5.710;2023-05-17T04:10:11;23.27;;;9.55;;
45338;SDS011;31071;51.478;5.710;2023-05-17T04:12:37;26.50;;;9.75;;
45338;SDS011;31071;51.478;5.710;2023-05-17T04:15:03;31.70;;;10.07;;
45338;SDS011;31071;51.478;5.710;2023-05-17T04:17:29;27.38;;;10.57;;
45338;SDS011;31071;51.478;5.710;2023-05-17T04:20:00;29.33;;;10.15;;
45338;SDS011;31071;51.478;5.710;2023-05-17T04:22:26;24.80;;;9.63;;
45338;SDS011;31071;51.478;5.710;2023-05-17T04:24:51;35.58;;;10.75;;
45338;SDS011;31071;51.478;5.710;2023-05-17T04:27:17;27.67;;;11.05;;
45338;SDS011;31071;51.478;5.710;2023-05-17T04:29:42;27.05;;;10.15;;
45338;SDS011;31071;51.478;5.710;2023-05-17T04:32:08;30.70;;;10.88;;
45338;SDS011;31071;51.478;5.710;2023-05-17T04:34:35;23.35;;;10.35;;
45338;SDS011;31071;51.478;5.710;2023-05-17T04:37:09;24.55;;;10.43;;
45338;SDS011;31071;51.478;5.710;2023-05-17T04:39:35;26.77;;;13.13;;
45338;SDS011;31071;51.478;5.710;2023-05-17T04:42:01;25.75;;;10.80;;
45338;SDS011;31071;51.478;5.710;2023-05-17T04:44:27;28.95;;;10.68;;
45338;SDS011;31071;51.478;5.710;2023-05-17T04:46:53;23.95;;;10.63;;
45338;SDS011;31071;51.478;5.710;2023-05-17T04:49:19;30.52;;;10.75;;
45338;SDS011;31071;51.478;5.710;2023-05-17T04:51:45;34.80;;;11.18;;
45338;SDS011;31071;51.478;5.710;2023-05-17T04:54:10;23.17;;;10.52;;
45338;SDS011;31071;51.478;5.710;2023-05-17T04:56:36;32.25;;;10.57;;
45338;SDS011;31071;51.478;5.710;2023-05-17T04:59:02;29.83;;;9.90;;
45338;SDS011;31071;51.478;5.710;2023-05-17T05:01:29;30.45;;;10.95;;
45338;SDS011;31071;51.478;5.710;2023-05-17T05:03:59;30.80;;;10.95;;
45338;SDS011;31071;51.478;5.710;2023-05-17T05:06:30;27.70;;;11.65;;
45338;SDS011;31071;51.478;5.710;2023-05-17T05:08:56;26.50;;;10.23;;
45338;SDS011;31071;51.478;5.710;2023-05-17T05:11:21;34.60;;;10.07;;
45338;SDS011;31071;51.478;5.710;2023-05-17T05:13:47;28.10;;;10.10;;
45338;SDS011;31071;51.478;5.710;2023-05-17T05:16:12;32.03;;;11.02;;
45338;SDS011;31071;51.478;5.710;2023-05-17T05:18:38;29.98;;;10.00;;
45338;SDS011;31071;51.478;5.710;2023-05-17T05:21:03;28.08;;;10.55;;
45338;SDS011;31071;51.478;5.710;2023-05-17T05:23:29;32.83;;;9.95;;
45338;SDS011;31071;51.478;5.710;2023-05-17T05:25:54;27.55;;;10.20;;
45338;SDS011;31071;51.478;5.710;2023-05-17T05:28:20;31.33;;;10.07;;
45338;SDS011;31071;51.478;5.710;2023-05-17T05:30:46;30.50;;;10.52;;
45338;SDS011;31071;51.478;5.710;2023-05-17T05:33:11;27.02;;;9.60;;
45338;SDS011;31071;51.478;5.710;2023-05-17T05:35:37;24.65;;;9.75;;
45338;SDS011;31071;51.478;5.710;2023-05-17T05:38:02;32.05;;;9.88;;
45338;SDS011;31071;51.478;5.710;2023-05-17T05:40:28;22.85;;;9.73;;
45338;SDS011;31071;51.478;5.710;2023-05-17T05:42:53;28.35;;;10.23;;
45338;SDS011;31071;51.478;5.710;2023-05-17T05:45:19;28.70;;;10.38;;
45338;SDS011;31071;51.478;5.710;2023-05-17T05:47:45;24.08;;;9.63;;
45338;SDS011;31071;51.478;5.710;2023-05-17T05:50:11;23.85;;;10.20;;
45338;SDS011;31071;51.478;5.710;2023-05-17T05:52:36;37.50;;;10.73;;
45338;SDS011;31071;51.478;5.710;2023-05-17T05:55:02;34.80;;;10.35;;
45338;SDS011;31071;51.478;5.710;2023-05-17T05:57:28;23.40;;;9.82;;
45338;SDS011;31071;51.478;5.710;2023-05-17T05:59:54;23.67;;;10.25;;
45338;SDS011;31071;51.478;5.710;2023-05-17T06:02:19;27.35;;;10.35;;
45338;SDS011;31071;51.478;5.710;2023-05-17T06:04:52;30.38;;;10.98;;
45338;SDS011;31071;51.478;5.710;2023-05-17T06:10:39;27.38;;;9.93;;
45338;SDS011;31071;51.478;5.710;2023-05-17T06:13:20;28.58;;;10.57;;
45338;SDS011;31071;51.478;5.710;2023-05-17T06:16:13;28.67;;;9.65;;
45338;SDS011;31071;51.478;5.710;2023-05-17T06:18:39;27.67;;;9.25;;
45338;SDS011;31071;51.478;5.710;2023-05-17T06:21:05;27.38;;;8.90;;
45338;SDS011;31071;51.478;5.710;2023-05-17T06:23:36;25.02;;;9.40;;
45338;SDS011;31071;51.478;5.710;2023-05-17T06:26:02;21.73;;;8.70;;
45338;SDS011;31071;51.478;5.710;2023-05-17T06:28:28;31.25;;;9.23;;
45338;SDS011;31071;51.478;5.710;2023-05-17T06:30:53;23.42;;;9.27;;
45338;SDS011;31071;51.478;5.710;2023-05-17T06:33:19;24.02;;;9.60;;
45338;SDS011;31071;51.478;5.710;2023-05-17T06:35:50;23.02;;;9.25;;
45338;SDS011;31071;51.478;5.710;2023-05-17T06:41:49;22.60;;;9.10;;
45338;SDS011;31071;51.478;5.710;2023-05-17T06:44:15;24.25;;;9.10;;
45338;SDS011;31071;51.478;5.710;2023-05-17T06:46:40;17.85;;;8.15;;
45338;SDS011;31071;51.478;5.710;2023-05-17T06:49:06;25.50;;;8.43;;
45338;SDS011;31071;51.478;5.710;2023-05-17T06:51:32;21.27;;;8.00;;
45338;SDS011;31071;51.478;5.710;2023-05-17T06:53:57;21.83;;;7.25;;
45338;SDS011;31071;51.478;5.710;2023-05-17T06:56:23;22.33;;;6.95;;
45338;SDS011;31071;51.478;5.710;2023-05-17T06:58:49;19.90;;;7.28;;
45338;SDS011;31071;51.478;5.710;2023-05-17T07:01:14;19.58;;;6.43;;
45338;SDS011;31071;51.478;5.710;2023-05-17T07:03:40;18.88;;;6.47;;
45338;SDS011;31071;51.478;5.710;2023-05-17T07:06:07;14.93;;;5.50;;
45338;SDS011;31071;51.478;5.710;2023-05-17T07:08:32;14.23;;;5.20;;
45338;SDS011;31071;51.478;5.710;2023-05-17T07:10:58;22.92;;;6.63;;
45338;SDS011;31071;51.478;5.710;2023-05-17T07:13:24;17.90;;;4.55;;
45338;SDS011;31071;51.478;5.710;2023-05-17T07:15:49;12.15;;;4.05;;
45338;SDS011;31071;51.478;5.710;2023-05-17T07:18:15;17.27;;;3.65;;
45338;SDS011;31071;51.478;5.710;2023-05-17T07:20:41;13.52;;;3.55;;
45338;SDS011;31071;51.478;5.710;2023-05-17T07:23:06;17.83;;;3.50;;
45338;SDS011;31071;51.478;5.710;2023-05-17T07:25:32;17.13;;;3.40;;
45338;SDS011;31071;51.478;5.710;2023-05-17T07:27:57;19.88;;;3.40;;
45338;SDS011;31071;51.478;5.710;2023-05-17T07:30:23;15.60;;;2.72;;
45338;SDS011;31071;51.478;5.710;2023-05-17T07:32:48;16.08;;;3.20;;
45338;SDS011;31071;51.478;5.710;2023-05-17T07:35:14;15.07;;;2.90;;
45338;SDS011;31071;51.478;5.710;2023-05-17T07:37:40;13.45;;;3.38;;
45338;SDS011;31071;51.478;5.710;2023-05-17T07:40:05;15.43;;;3.25;;
45338;SDS011;31071;51.478;5.710;2023-05-17T07:42:32;15.68;;;3.00;;
45338;SDS011;31071;51.478;5.710;2023-05-17T07:44:57;11.93;;;2.80;;
45338;SDS011;31071;51.478;5.710;2023-05-17T07:47:23;9.93;;;2.92;;
45338;SDS011;31071;51.478;5.710;2023-05-17T07:49:48;17.10;;;2.80;;
45338;SDS011;31071;51.478;5.710;2023-05-17T07:52:14;12.35;;;2.55;;
45338;SDS011;31071;51.478;5.710;2023-05-17T07:54:40;14.77;;;2.42;;
45338;SDS011;31071;51.478;5.710;2023-05-17T07:57:05;10.00;;;2.20;;
45338;SDS011;31071;51.478;5.710;2023-05-17T07:59:31;9.52;;;2.60;;
45338;SDS011;31071;51.478;5.710;2023-05-17T08:01:57;13.38;;;2.83;;
45338;SDS011;31071;51.478;5.710;2023-05-17T08:04:25;16.92;;;3.40;;
45338;SDS011;31071;51.478;5.710;2023-05-17T08:06:50;14.32;;;2.60;;
45338;SDS011;31071;51.478;5.710;2023-05-17T08:09:16;9.57;;;2.22;;
45338;SDS011;31071;51.478;5.710;2023-05-17T08:11:42;8.40;;;1.92;;
45338;SDS011;31071;51.478;5.710;2023-05-17T08:14:13;8.95;;;2.10;;
45338;SDS011;31071;51.478;5.710;2023-05-17T08:16:44;13.40;;;2.78;;
45338;SDS011;31071;51.478;5.710;2023-05-17T08:19:11;15.30;;;2.63;;
45338;SDS011;31071;51.478;5.710;2023-05-17T08:21:41;16.35;;;2.53;;
45338;SDS011;31071;51.478;5.710;2023-05-17T08:24:07;12.68;;;2.45;;
45338;SDS011;31071;51.478;5.710;2023-05-17T08:26:33;10.20;;;2.55;;
45338;SDS011;31071;51.478;5.710;2023-05-17T08:29:00;9.98;;;2.22;;
45338;SDS011;31071;51.478;5.710;2023-05-17T08:31:26;9.68;;;2.60;;
45338;SDS011;31071;51.478;5.710;2023-05-17T08:33:52;12.15;;;2.95;;
45338;SDS011;31071;51.478;5.710;2023-05-17T08:36:18;9.77;;;2.50;;
45338;SDS011;31071;51.478;5.710;2023-05-17T08:38:44;19.15;;;2.70;;
45338;SDS011;31071;51.478;5.710;2023-05-17T08:41:10;14.18;;;2.78;;
45338;SDS011;31071;51.478;5.710;2023-05-17T08:43:37;15.43;;;2.83;;
45338;SDS011;31071;51.478;5.710;2023-05-17T08:46:03;12.10;;;2.50;;
45338;SDS011;31071;51.478;5.710;2023-05-17T08:48:29;9.85;;;2.60;;
45338;SDS011;31071;51.478;5.710;2023-05-17T08:50:55;11.32;;;2.47;;
45338;SDS011;31071;51.478;5.710;2023-05-17T08:53:25;11.20;;;2.47;;
45338;SDS011;31071;51.478;5.710;2023-05-17T08:55:52;12.65;;;2.90;;
45338;SDS011;31071;51.478;5.710;2023-05-17T08:58:30;12.85;;;2.47;;
45338;SDS011;31071;51.478;5.710;2023-05-17T09:00:57;12.82;;;2.38;;
45338;SDS011;31071;51.478;5.710;2023-05-17T09:03:24;11.02;;;2.58;;
45338;SDS011;31071;51.478;5.710;2023-05-17T09:05:50;15.27;;;2.40;;
45338;SDS011;31071;51.478;5.710;2023-05-17T09:08:22;8.90;;;1.90;;
45338;SDS011;31071;51.478;5.710;2023-05-17T09:10:48;8.65;;;2.17;;
45338;SDS011;31071;51.478;5.710;2023-05-17T09:13:14;12.02;;;2.05;;
45338;SDS011;31071;51.478;5.710;2023-05-17T09:15:44;12.13;;;2.30;;
45338;SDS011;31071;51.478;5.710;2023-05-17T09:18:17;12.70;;;2.65;;
45338;SDS011;31071;51.478;5.710;2023-05-17T09:20:48;12.55;;;2.33;;
45338;SDS011;31071;51.478;5.710;2023-05-17T09:23:17;9.10;;;2.28;;
45338;SDS011;31071;51.478;5.710;2023-05-17T09:25:48;12.27;;;2.33;;
45338;SDS011;31071;51.478;5.710;2023-05-17T09:28:13;10.80;;;2.40;;
45338;SDS011;31071;51.478;5.710;2023-05-17T09:30:42;9.93;;;2.13;;
45338;SDS011;31071;51.478;5.710;2023-05-17T09:33:07;14.55;;;2.40;;
45338;SDS011;31071;51.478;5.710;2023-05-17T09:35:37;10.63;;;2.25;;
45338;SDS011;31071;51.478;5.710;2023-05-17T09:40:51;10.80;;;2.30;;
45338;SDS011;31071;51.478;5.710;2023-05-17T09:43:21;11.40;;;2.92;;
45338;SDS011;31071;51.478;5.710;2023-05-17T09:45:59;12.38;;;2.78;;
45338;SDS011;31071;51.478;5.710;2023-05-17T09:48:25;15.23;;;2.90;;
45338;SDS011;31071;51.478;5.710;2023-05-17T09:50:52;14.15;;;2.72;;
45338;SDS011;31071;51.478;5.710;2023-05-17T09:53:27;9.85;;;2.33;;
45338;SDS011;31071;51.478;5.710;2023-05-17T09:55:55;13.90;;;2.25;;
45338;SDS011;31071;51.478;5.710;2023-05-17T09:58:22;9.50;;;2.42;;
45338;SDS011;31071;51.478;5.710;2023-05-17T10:00:53;6.95;;;1.73;;
45338;SDS011;31071;51.478;5.710;2023-05-17T10:03:29;10.10;;;2.20;;
45338;SDS011;31071;51.478;5.710;2023-05-17T10:05:56;9.88;;;1.90;;
45338;SDS011;31071;51.478;5.710;2023-05-17T10:11:46;10.95;;;2.33;;
45338;SDS011;31071;51.478;5.710;2023-05-17T10:14:17;6.85;;;1.77;;
45338;SDS011;31071;51.478;5.710;2023-05-17T10:16:47;9.43;;;1.92;;
45338;SDS011;31071;51.478;5.710;2023-05-17T10:19:13;7.53;;;2.08;;
45338;SDS011;31071;51.478;5.710;2023-05-17T10:21:43;11.45;;;2.08;;
45338;SDS011;31071;51.478;5.710;2023-05-17T10:24:12;11.77;;;2.17;;
45338;SDS011;31071;51.478;5.710;2023-05-17T10:26:38;10.98;;;2.20;;
45338;SDS011;31071;51.478;5.710;2023-05-17T10:29:04;8.52;;;2.00;;
45338;SDS011;31071;51.478;5.710;2023-05-17T10:31:31;7.63;;;2.13;;
45338;SDS011;31071;51.478;5.710;2023-05-17T10:34:02;9.73;;;1.90;;
45338;SDS011;31071;51.478;5.710;2023-05-17T10:36:29;6.72;;;1.70;;
45338;SDS011;31071;51.478;5.710;2023-05-17T10:38:55;9.13;;;1.55;;
45338;SDS011;31071;51.478;5.710;2023-05-17T10:41:23;7.72;;;2.28;;
45338;SDS011;31071;51.478;5.710;2023-05-17T10:43:55;11.73;;;2.05;;
45338;SDS011;31071;51.478;5.710;2023-05-17T10:46:21;8.23;;;1.60;;
45338;SDS011;31071;51.478;5.710;2023-05-17T10:48:51;8.70;;;1.88;;
45338;SDS011;31071;51.478;5.710;2023-05-17T10:51:21;9.45;;;2.20;;
45338;SDS011;31071;51.478;5.710;2023-05-17T10:56:54;9.52;;;1.42;;
45338;SDS011;31071;51.478;5.710;2023-05-17T10:59:27;6.15;;;1.73;;
45338;SDS011;31071;51.478;5.710;2023-05-17T11:02:06;7.18;;;2.50;;
45338;SDS011;31071;51.478;5.710;2023-05-17T11:04:41;5.50;;;1.73;;
45338;SDS011;31071;51.478;5.710;2023-05-17T11:12:41;8.85;;;2.10;;
45338;SDS011;31071;51.478;5.710;2023-05-17T11:15:10;7.78;;;1.92;;
45338;SDS011;31071;51.478;5.710;2023-05-17T11:20:30;6.03;;;1.48;;
45338;SDS011;31071;51.478;5.710;2023-05-17T11:23:03;7.43;;;1.88;;
45338;SDS011;31071;51.478;5.710;2023-05-17T11:25:34;4.88;;;1.58;;
45338;SDS011;31071;51.478;5.710;2023-05-17T11:28:05;6.65;;;2.22;;
45338;SDS011;31071;51.478;5.710;2023-05-17T11:30:42;6.03;;;2.15;;
45338;SDS011;31071;51.478;5.710;2023-05-17T11:33:41;7.43;;;2.00;;
45338;SDS011;31071;51.478;5.710;2023-05-17T11:36:15;7.50;;;1.75;;
45338;SDS011;31071;51.478;5.710;2023-05-17T11:38:43;6.78;;;2.22;;
45338;SDS011;31071;51.478;5.710;2023-05-17T11:46:34;7.82;;;2.25;;
45338;SDS011;31071;51.478;5.710;2023-05-17T11:49:06;5.78;;;1.60;;
45338;SDS011;31071;51.478;5.710;2023-05-17T11:51:32;7.20;;;1.80;;
45338;SDS011;31071;51.478;5.710;2023-05-17T12:01:14;6.95;;;1.80;;
45338;SDS011;31071;51.478;5.710;2023-05-17T12:03:22;6.18;;;2.08;;
45338;SDS011;31071;51.478;5.710;2023-05-17T12:28:23;7.20;;;2.08;;
45338;SDS011;31071;51.478;5.710;2023-05-17T12:30:52;7.75;;;1.90;;
45338;SDS011;31071;51.478;5.710;2023-05-17T12:33:23;6.28;;;1.75;;
45338;SDS011;31071;51.478;5.710;2023-05-17T12:35:49;5.82;;;2.00;;
45338;SDS011;31071;51.478;5.710;2023-05-17T12:38:18;6.25;;;2.40;;
45338;SDS011;31071;51.478;5.710;2023-05-17T12:40:44;5.93;;;1.65;;
45338;SDS011;31071;51.478;5.710;2023-05-17T12:43:13;13.00;;;2.72;;
45338;SDS011;31071;51.478;5.710;2023-05-17T12:45:41;9.80;;;2.03;;
45338;SDS011;31071;51.478;5.710;2023-05-17T12:48:07;8.25;;;2.22;;
45338;SDS011;31071;51.478;5.710;2023-05-17T12:50:32;7.20;;;1.83;;
45338;SDS011;31071;51.478;5.710;2023-05-17T12:52:58;6.25;;;2.00;;
45338;SDS011;31071;51.478;5.710;2023-05-17T12:55:24;7.25;;;1.67;;
45338;SDS011;31071;51.478;5.710;2023-05-17T12:57:50;6.55;;;2.35;;
45338;SDS011;31071;51.478;5.710;2023-05-17T13:00:19;8.45;;;2.30;;
45338;SDS011;31071;51.478;5.710;2023-05-17T13:02:45;9.57;;;2.20;;
45338;SDS011;31071;51.478;5.710;2023-05-17T13:05:15;5.53;;;1.60;;
45338;SDS011;31071;51.478;5.710;2023-05-17T13:07:47;9.55;;;1.73;;
45338;SDS011;31071;51.478;5.710;2023-05-17T13:10:19;4.70;;;1.38;;
45338;SDS011;31071;51.478;5.710;2023-05-17T13:12:55;3.08;;;1.10;;
45338;SDS011;31071;51.478;5.710;2023-05-17T13:15:28;6.93;;;1.80;;
45338;SDS011;31071;51.478;5.710;2023-05-17T13:17:55;6.03;;;1.45;;
45338;SDS011;31071;51.478;5.710;2023-05-17T13:20:21;7.55;;;1.67;;
45338;SDS011;31071;51.478;5.710;2023-05-17T13:22:47;6.35;;;1.40;;
45338;SDS011;31071;51.478;5.710;2023-05-17T13:25:13;4.65;;;1.60;;
45338;SDS011;31071;51.478;5.710;2023-05-17T13:27:39;2.53;;;1.25;;
45338;SDS011;31071;51.478;5.710;2023-05-17T13:30:10;4.57;;;1.70;;
45338;SDS011;31071;51.478;5.710;2023-05-17T13:32:37;5.45;;;1.60;;
45338;SDS011;31071;51.478;5.710;2023-05-17T13:35:02;5.68;;;1.60;;
45338;SDS011;31071;51.478;5.710;2023-05-17T13:37:36;5.38;;;1.67;;
45338;SDS011;31071;51.478;5.710;2023-05-17T13:40:10;5.35;;;1.70;;
45338;SDS011;31071;51.478;5.710;2023-05-17T13:42:45;7.63;;;1.85;;
45338;SDS011;31071;51.478;5.710;2023-05-17T13:45:13;7.90;;;1.70;;
45338;SDS011;31071;51.478;5.710;2023-05-17T13:47:39;3.78;;;1.65;;
45338;SDS011;31071;51.478;5.710;2023-05-17T13:50:05;7.85;;;1.70;;
45338;SDS011;31071;51.478;5.710;2023-05-17T13:52:31;7.28;;;1.63;;
45338;SDS011;31071;51.478;5.710;2023-05-17T13:54:57;8.35;;;1.65;;
45338;SDS011;31071;51.478;5.710;2023-05-17T13:57:22;7.45;;;2.33;;
45338;SDS011;31071;51.478;5.710;2023-05-17T13:59:48;6.53;;;1.80;;
45338;SDS011;31071;51.478;5.710;2023-05-17T14:02:14;8.18;;;1.90;;
45338;SDS011;31071;51.478;5.710;2023-05-17T14:04:39;6.93;;;1.92;;
45338;SDS011;31071;51.478;5.710;2023-05-17T14:07:05;7.20;;;2.03;;
45338;SDS011;31071;51.478;5.710;2023-05-17T14:09:31;7.25;;;2.08;;
45338;SDS011;31071;51.478;5.710;2023-05-17T14:11:58;7.50;;;1.75;;
45338;SDS011;31071;51.478;5.710;2023-05-17T14:14:25;7.03;;;2.22;;
45338;SDS011;31071;51.478;5.710;2023-05-17T14:16:55;8.10;;;2.10;;
45338;SDS011;31071;51.478;5.710;2023-05-17T14:19:20;5.55;;;2.10;;
45338;SDS011;31071;51.478;5.710;2023-05-17T14:21:46;10.82;;;2.03;;
45338;SDS011;31071;51.478;5.710;2023-05-17T14:24:12;5.43;;;1.77;;
45338;SDS011;31071;51.478;5.710;2023-05-17T14:26:37;7.07;;;2.35;;
45338;SDS011;31071;51.478;5.710;2023-05-17T14:29:03;9.65;;;2.72;;
45338;SDS011;31071;51.478;5.710;2023-05-17T14:31:31;8.73;;;2.13;;
45338;SDS011;31071;51.478;5.710;2023-05-17T14:33:57;7.45;;;1.80;;
45338;SDS011;31071;51.478;5.710;2023-05-17T14:36:25;6.45;;;1.92;;
45338;SDS011;31071;51.478;5.710;2023-05-17T14:38:51;7.90;;;2.05;;
45338;SDS011;31071;51.478;5.710;2023-05-17T14:41:16;6.30;;;2.05;;
45338;SDS011;31071;51.478;5.710;2023-05-17T14:43:42;8.93;;;2.03;;
45338;SDS011;31071;51.478;5.710;2023-05-17T14:46:08;9.50;;;2.70;;
45338;SDS011;31071;51.478;5.710;2023-05-17T14:48:33;8.23;;;1.88;;
45338;SDS011;31071;51.478;5.710;2023-05-17T14:50:59;9.43;;;2.45;;
45338;SDS011;31071;51.478;5.710;2023-05-17T14:53:27;12.27;;;2.50;;
45338;SDS011;31071;51.478;5.710;2023-05-17T14:55:53;9.77;;;2.22;;
45338;SDS011;31071;51.478;5.710;2023-05-17T14:58:19;7.90;;;2.38;;
45338;SDS011;31071;51.478;5.710;2023-05-17T15:00:45;7.68;;;2.50;;
45338;SDS011;31071;51.478;5.710;2023-05-17T15:03:11;9.73;;;2.08;;
45338;SDS011;31071;51.478;5.710;2023-05-17T15:05:37;7.50;;;2.35;;
45338;SDS011;31071;51.478;5.710;2023-05-17T15:08:04;7.72;;;2.58;;
45338;SDS011;31071;51.478;5.710;2023-05-17T15:10:29;9.73;;;2.30;;
45338;SDS011;31071;51.478;5.710;2023-05-17T15:12:55;11.93;;;2.50;;
45338;SDS011;31071;51.478;5.710;2023-05-17T15:15:21;13.30;;;2.53;;
45338;SDS011;31071;51.478;5.710;2023-05-17T15:17:46;12.52;;;2.75;;
45338;SDS011;31071;51.478;5.710;2023-05-17T15:20:12;8.27;;;2.15;;
45338;SDS011;31071;51.478;5.710;2023-05-17T15:22:38;8.23;;;1.90;;
45338;SDS011;31071;51.478;5.710;2023-05-17T15:25:11;11.40;;;2.55;;
45338;SDS011;31071;51.478;5.710;2023-05-17T15:27:36;10.23;;;2.42;;
45338;SDS011;31071;51.478;5.710;2023-05-17T15:30:02;7.43;;;1.85;;
45338;SDS011;31071;51.478;5.710;2023-05-17T15:32:27;9.25;;;2.65;;
45338;SDS011;31071;51.478;5.710;2023-05-17T15:34:53;10.18;;;2.40;;
45338;SDS011;31071;51.478;5.710;2023-05-17T15:37:18;9.68;;;2.15;;
45338;SDS011;31071;51.478;5.710;2023-05-17T15:39:44;13.00;;;2.50;;
45338;SDS011;31071;51.478;5.710;2023-05-17T15:42:10;10.13;;;2.50;;
45338;SDS011;31071;51.478;5.710;2023-05-17T15:44:35;15.88;;;2.47;;
45338;SDS011;31071;51.478;5.710;2023-05-17T15:47:01;7.72;;;2.15;;
45338;SDS011;31071;51.478;5.710;2023-05-17T15:49:26;13.32;;;2.63;;
45338;SDS011;31071;51.478;5.710;2023-05-17T15:51:52;8.48;;;2.38;;
45338;SDS011;31071;51.478;5.710;2023-05-17T15:54:17;7.47;;;2.10;;
45338;SDS011;31071;51.478;5.710;2023-05-17T15:56:43;12.40;;;3.03;;